createdAt,value
2022-11-12T00:01:33.466Z,13.35
2022-11-12T00:04:37.669Z,13.32
2022-11-12T00:07:42.690Z,13.32
2022-11-12T00:10:47.277Z,13.31
2022-11-12T00:13:51.700Z,13.31
2022-11-12T00:16:55.941Z,13.30
2022-11-12T00:20:00.248Z,13.30
2022-11-12T00:23:04.808Z,13.29
2022-11-12T00:26:09.293Z,13.28
2022-11-12T00:29:13.483Z,13.30
2022-11-12T00:32:18.287Z,13.28
2022-11-12T00:35:22.447Z,13.29
2022-11-12T00:38:26.989Z,13.30
2022-11-12T00:41:31.463Z,13.31
2022-11-12T00:44:35.562Z,13.33
2022-11-12T00:47:39.980Z,13.32
2022-11-12T00:50:44.279Z,13.33
2022-11-12T00:53:49.342Z,13.33
2022-11-12T00:56:53.641Z,13.31
2022-11-12T00:59:58.157Z,13.28
2022-11-12T01:03:02.459Z,13.27
2022-11-12T01:06:12.846Z,13.26
2022-11-12T01:09:16.867Z,13.28
2022-11-12T01:12:21.270Z,13.27
2022-11-12T01:15:25.873Z,13.25
2022-11-12T01:18:30.429Z,13.19
2022-11-12T01:21:39.516Z,13.12
2022-11-12T01:24:43.612Z,13.06
2022-11-12T01:27:47.855Z,12.99
2022-11-12T01:30:52.083Z,12.92
2022-11-12T01:34:00.465Z,12.81
2022-11-12T01:37:05.045Z,12.76
2022-11-12T01:40:10.555Z,12.76
2022-11-12T01:43:14.951Z,12.75
2022-11-12T01:46:28.043Z,12.74
2022-11-12T01:49:39.718Z,12.74
2022-11-12T01:52:49.926Z,12.80
2022-11-12T01:55:56.068Z,12.85
2022-11-12T01:59:17.298Z,12.90
2022-11-12T02:02:21.736Z,12.93
2022-11-12T02:05:28.120Z,12.96
2022-11-12T02:08:33.516Z,12.94
2022-11-12T02:11:38.038Z,13.00
2022-11-12T02:14:42.427Z,13.03
2022-11-12T02:17:46.739Z,13.02
2022-11-12T02:20:57.257Z,12.94
2022-11-12T02:24:26.084Z,12.90
2022-11-12T02:27:30.506Z,12.93
2022-11-12T02:30:39.350Z,12.96
2022-11-12T02:33:43.562Z,12.99
2022-11-12T02:36:47.607Z,13.01
2022-11-12T02:39:51.728Z,13.07
2022-11-12T02:42:56.217Z,13.16
2022-11-12T02:46:00.733Z,13.19
2022-11-12T02:49:05.110Z,13.20
2022-11-12T02:52:09.085Z,13.26
2022-11-12T02:55:13.562Z,13.30
2022-11-12T02:58:17.592Z,13.32
2022-11-12T03:01:21.885Z,13.33
2022-11-12T03:04:26.105Z,13.38
2022-11-12T03:07:30.252Z,13.39
2022-11-12T03:10:38.198Z,13.37
2022-11-12T03:13:42.934Z,13.34
2022-11-12T03:16:47.386Z,13.25
2022-11-12T03:19:51.778Z,13.17
2022-11-12T03:23:03.388Z,13.20
2022-11-12T03:26:07.973Z,13.17
2022-11-12T03:29:12.618Z,13.11
2022-11-12T03:32:17.284Z,13.07
2022-11-12T03:35:22.577Z,12.96
2022-11-12T03:38:27.277Z,12.92
2022-11-12T03:41:31.783Z,12.87
2022-11-12T03:44:36.185Z,12.78
2022-11-12T03:47:45.832Z,12.69
2022-11-12T03:50:50.222Z,12.64
2022-11-12T03:53:54.303Z,12.62
2022-11-12T03:56:58.692Z,12.58
2022-11-12T04:00:03.722Z,12.58
2022-11-12T04:03:07.932Z,12.59
2022-11-12T04:06:30.917Z,12.58
2022-11-12T04:09:35.312Z,12.60
2022-11-12T04:12:58.120Z,12.64
2022-11-12T04:16:31.728Z,12.71
2022-11-12T04:19:59.238Z,12.75
2022-11-12T04:23:03.581Z,12.79
2022-11-12T04:26:25.539Z,12.78
2022-11-12T04:29:48.634Z,12.77
2022-11-12T04:32:54.832Z,12.81
2022-11-12T04:35:59.284Z,12.87
2022-11-12T04:39:03.510Z,12.89
2022-11-12T04:42:27.906Z,12.91
2022-11-12T04:45:32.459Z,12.89
2022-11-12T04:48:36.690Z,12.88
2022-11-12T04:51:59.356Z,12.86
2022-11-12T04:55:04.555Z,12.88
2022-11-12T04:58:09.290Z,12.81
2022-11-12T05:01:13.997Z,12.79
2022-11-12T05:04:18.927Z,12.75
2022-11-12T05:07:23.233Z,12.75
2022-11-12T05:10:27.405Z,12.75
2022-11-12T05:13:31.508Z,12.76
2022-11-12T05:16:35.949Z,12.77
2022-11-12T05:19:40.543Z,12.74
2022-11-12T05:22:59.166Z,12.74
2022-11-12T05:26:09.343Z,12.75
2022-11-12T05:29:14.555Z,12.75
2022-11-12T05:32:18.872Z,12.73
2022-11-12T05:35:23.122Z,12.74
2022-11-12T05:38:27.774Z,12.74
2022-11-12T05:41:51.062Z,12.75
2022-11-12T05:44:56.572Z,12.74
2022-11-12T05:48:01.052Z,12.73
2022-11-12T05:51:12.894Z,12.74
2022-11-12T05:54:18.535Z,12.72
2022-11-12T05:57:22.980Z,12.70
2022-11-12T06:00:27.134Z,12.70
2022-11-12T06:03:31.567Z,12.67
2022-11-12T06:06:35.615Z,12.68
2022-11-12T06:09:40.081Z,12.66
2022-11-12T06:12:44.341Z,12.65
2022-11-12T06:15:48.591Z,12.64
2022-11-12T06:18:52.803Z,12.60
2022-11-12T06:21:57.023Z,12.59
2022-11-12T06:25:01.448Z,12.59
2022-11-12T06:28:05.926Z,12.63
2022-11-12T06:31:10.193Z,12.61
2022-11-12T06:34:14.923Z,12.61
2022-11-12T06:37:21.794Z,12.58
2022-11-12T06:40:26.194Z,12.56
2022-11-12T06:43:32.742Z,12.54
2022-11-12T06:46:37.377Z,12.53
2022-11-12T06:49:41.606Z,12.53
2022-11-12T06:52:46.028Z,12.50
2022-11-12T06:55:50.690Z,12.48
2022-11-12T06:58:55.093Z,12.45
2022-11-12T07:01:59.521Z,12.44
2022-11-12T07:05:04.044Z,12.42
2022-11-12T07:08:08.768Z,12.40
2022-11-12T07:11:14.004Z,12.40
2022-11-12T07:14:18.605Z,12.42
2022-11-12T07:17:23.173Z,12.41
2022-11-12T07:20:27.455Z,12.41
2022-11-12T07:23:33.303Z,12.40
2022-11-12T07:26:37.626Z,12.42
2022-11-12T07:29:48.212Z,12.40
2022-11-12T07:32:53.230Z,12.38
2022-11-12T07:36:01.778Z,12.37
2022-11-12T07:39:05.979Z,12.37
2022-11-12T07:42:10.288Z,12.35
2022-11-12T07:45:14.420Z,12.36
2022-11-12T07:48:18.867Z,12.33
2022-11-12T07:51:25.747Z,12.37
2022-11-12T07:54:30.348Z,12.33
2022-11-12T07:57:34.433Z,12.33
2022-11-12T08:00:38.620Z,12.35
2022-11-12T08:03:42.709Z,12.33
2022-11-12T08:06:46.958Z,12.33
2022-11-12T08:09:50.868Z,12.29
2022-11-12T08:12:56.759Z,12.28
2022-11-12T08:16:01.241Z,12.24
2022-11-12T08:19:05.376Z,12.20
2022-11-12T08:22:09.539Z,12.18
2022-11-12T08:25:14.115Z,12.13
2022-11-12T08:28:18.393Z,12.11
2022-11-12T08:31:23.617Z,12.07
2022-11-12T08:34:27.943Z,12.05
2022-11-12T08:37:32.323Z,12.04
2022-11-12T08:40:37.479Z,12.04
2022-11-12T08:43:42.332Z,12.03
2022-11-12T08:46:46.413Z,12.03
2022-11-12T08:49:50.724Z,12.05
2022-11-12T08:53:00.615Z,12.02
2022-11-12T08:56:05.031Z,12.03
2022-11-12T08:59:09.718Z,12.02
2022-11-12T09:02:14.090Z,12.02
2022-11-12T09:05:18.625Z,12.03
2022-11-12T09:08:25.839Z,12.08
2022-11-12T09:11:30.312Z,12.11
2022-11-12T09:14:34.787Z,12.14
2022-11-12T09:17:39.232Z,12.20
2022-11-12T09:20:43.882Z,12.21
2022-11-12T09:23:48.431Z,12.22
2022-11-12T09:26:54.042Z,12.27
2022-11-12T09:29:58.529Z,12.26
2022-11-12T09:33:03.124Z,12.30
2022-11-12T09:36:07.810Z,12.29
2022-11-12T09:39:12.190Z,12.35
2022-11-12T09:42:19.627Z,12.36
2022-11-12T09:45:30.160Z,12.34
2022-11-12T09:48:41.126Z,12.37
2022-11-12T09:52:03.253Z,12.37
2022-11-12T09:55:22.556Z,12.40
2022-11-12T09:58:27.945Z,12.41
2022-11-12T10:01:50.853Z,12.39
2022-11-12T10:05:13.279Z,12.42
2022-11-12T10:08:29.076Z,12.44
2022-11-12T10:12:04.785Z,12.46
2022-11-12T10:15:40.049Z,12.54
2022-11-12T10:18:44.030Z,12.57
2022-11-12T10:22:03.050Z,12.62
2022-11-12T10:25:15.767Z,12.63
2022-11-12T10:28:46.314Z,12.66
2022-11-12T10:31:50.676Z,12.64
2022-11-12T10:34:55.247Z,12.71
2022-11-12T10:38:03.010Z,12.80
2022-11-12T10:41:25.656Z,12.95
2022-11-12T10:44:29.842Z,13.14
2022-11-12T10:47:42.988Z,13.19
2022-11-12T10:50:47.332Z,13.34
2022-11-12T10:53:51.754Z,13.51
2022-11-12T10:56:56.458Z,13.53
2022-11-12T11:00:13.480Z,13.50
2022-11-12T11:03:22.948Z,13.55
2022-11-12T11:06:27.344Z,13.56
2022-11-12T11:09:32.411Z,13.54
2022-11-12T11:12:36.666Z,13.64
2022-11-12T11:15:41.007Z,13.71
2022-11-12T11:19:05.851Z,13.85
2022-11-12T11:22:30.540Z,13.95
2022-11-12T11:25:36.173Z,14.15
2022-11-12T11:28:52.977Z,14.31
2022-11-12T11:32:19.937Z,14.45
2022-11-12T11:35:47.124Z,14.51
2022-11-12T11:39:18.142Z,14.63
2022-11-12T11:43:02.882Z,14.66
2022-11-12T11:46:07.326Z,14.65
2022-11-12T11:49:26.846Z,14.55
2022-11-12T11:52:40.030Z,14.52
2022-11-12T11:56:04.009Z,14.52
2022-11-12T11:59:24.252Z,14.48
2022-11-12T12:02:47.054Z,14.40
2022-11-12T12:06:09.970Z,14.38
2022-11-12T12:09:18.036Z,14.41
2022-11-12T12:12:55.654Z,14.41
2022-11-12T12:16:26.831Z,14.45
2022-11-12T12:19:57.180Z,14.70
2022-11-12T12:23:23.534Z,14.89
2022-11-12T12:26:42.458Z,15.01
2022-11-12T12:30:00.782Z,15.10
2022-11-12T12:33:28.246Z,15.09
2022-11-12T12:36:38.818Z,14.85
2022-11-12T12:39:59.840Z,14.70
2022-11-12T12:43:26.519Z,14.48
2022-11-12T12:46:37.037Z,14.25
2022-11-12T12:49:43.057Z,14.07
2022-11-12T12:53:06.239Z,13.96
2022-11-12T12:56:10.829Z,13.85
2022-11-12T12:59:23.891Z,13.81
2022-11-12T13:02:28.369Z,13.82
2022-11-12T13:05:37.823Z,13.85
2022-11-12T13:08:42.509Z,14.00
2022-11-12T13:12:04.382Z,14.31
2022-11-12T13:15:16.378Z,14.61
2022-11-12T13:18:39.679Z,14.80
2022-11-12T13:21:44.588Z,14.80
2022-11-12T13:25:10.670Z,14.68
2022-11-12T13:28:15.010Z,14.57
2022-11-12T13:31:29.519Z,14.46
2022-11-12T13:34:34.304Z,14.28
2022-11-12T13:38:03.926Z,14.06
2022-11-12T13:41:11.255Z,13.95
2022-11-12T13:44:17.623Z,13.81
2022-11-12T13:47:24.855Z,13.72
2022-11-12T13:50:29.072Z,13.68
2022-11-12T13:53:33.902Z,13.60
2022-11-12T13:56:39.209Z,13.57
2022-11-12T13:59:43.630Z,13.51
2022-11-12T14:02:55.735Z,13.46
2022-11-12T14:06:06.346Z,13.39
2022-11-12T14:09:44.545Z,13.35
2022-11-12T14:13:20.765Z,13.35
2022-11-12T14:16:31.567Z,13.31
2022-11-12T14:19:57.497Z,13.30
2022-11-12T14:23:13.499Z,13.26
2022-11-12T14:26:53.496Z,13.26
2022-11-12T14:30:32.528Z,13.26
2022-11-12T14:33:36.991Z,13.26
2022-11-12T14:36:41.354Z,13.20
2022-11-12T14:39:46.150Z,13.15
2022-11-12T14:42:51.956Z,13.12
2022-11-12T14:45:59.397Z,13.05
2022-11-12T14:49:16.057Z,13.02
2022-11-12T14:52:25.088Z,13.00
2022-11-12T14:55:33.970Z,12.95
2022-11-12T14:58:40.743Z,12.89
2022-11-12T15:05:28.515Z,12.75
2022-11-12T15:08:40.745Z,12.71
2022-11-12T15:11:49.660Z,12.69
2022-11-12T15:15:03.601Z,12.69
2022-11-12T15:18:19.322Z,12.68
2022-11-12T15:21:28.474Z,12.67
2022-11-12T15:24:37.756Z,12.67
2022-11-12T15:27:43.306Z,12.67
2022-11-12T15:31:02.600Z,12.69
2022-11-12T15:34:34.389Z,12.64
2022-11-12T15:37:43.136Z,12.64
2022-11-12T15:40:57.321Z,12.66
2022-11-12T15:44:02.126Z,12.68
2022-11-12T15:47:08.708Z,12.69
2022-11-12T15:50:22.772Z,12.70
2022-11-12T15:53:28.820Z,12.51
2022-11-12T15:56:33.899Z,12.61
2022-11-12T15:59:37.842Z,12.60
2022-11-12T16:02:43.428Z,12.58
2022-11-12T16:05:51.389Z,12.58
2022-11-12T16:08:55.257Z,12.55
2022-11-12T16:12:00.887Z,12.51
2022-11-12T16:15:16.642Z,12.47
2022-11-12T16:18:20.675Z,12.42
2022-11-12T16:21:24.900Z,12.41
2022-11-12T16:24:29.284Z,12.39
2022-11-12T16:27:33.829Z,12.37
2022-11-12T16:30:38.553Z,12.34
2022-11-12T16:33:42.760Z,12.27
2022-11-12T16:36:47.725Z,12.24
2022-11-12T16:39:52.174Z,12.28
2022-11-12T16:42:56.887Z,12.30
2022-11-12T16:46:01.216Z,12.33
2022-11-12T16:49:05.379Z,12.35
2022-11-12T16:52:10.686Z,12.35
2022-11-12T16:55:15.657Z,12.33
2022-11-12T16:58:19.708Z,12.31
2022-11-12T17:01:27.280Z,12.28
2022-11-12T17:04:31.807Z,12.26
2022-11-12T17:07:36.149Z,12.26
2022-11-12T17:10:40.227Z,12.29
2022-11-12T17:13:44.498Z,12.34
2022-11-12T17:16:48.950Z,12.35
2022-11-12T17:19:53.275Z,12.40
2022-11-12T17:22:58.162Z,12.41
2022-11-12T17:26:04.846Z,12.41
2022-11-12T17:29:09.389Z,12.41
2022-11-12T17:32:13.672Z,12.42
2022-11-12T17:35:18.136Z,12.46
2022-11-12T17:38:22.533Z,12.46
2022-11-12T17:41:28.871Z,12.50
2022-11-12T17:44:33.264Z,12.56
2022-11-12T17:47:40.477Z,12.47
2022-11-12T17:50:45.543Z,12.48
2022-11-12T17:53:50.735Z,12.49
2022-11-12T17:56:54.973Z,12.48
2022-11-12T17:59:59.236Z,12.47
2022-11-12T18:03:03.519Z,12.41
2022-11-12T18:06:14.635Z,12.39
2022-11-12T18:09:19.147Z,12.36
2022-11-12T18:12:23.500Z,12.29
2022-11-12T18:15:27.801Z,12.19
2022-11-12T18:18:32.061Z,12.11
2022-11-12T18:21:40.492Z,12.04
2022-11-12T18:24:45.073Z,12.04
2022-11-12T18:27:49.974Z,12.08
2022-11-12T18:31:03.425Z,12.15
2022-11-12T18:34:15.176Z,12.22
2022-11-12T18:37:19.542Z,12.29
2022-11-12T18:40:24.330Z,12.29
2022-11-12T18:43:29.530Z,12.30
2022-11-12T18:46:34.298Z,12.31
2022-11-12T18:49:38.311Z,12.30
2022-11-12T18:52:43.555Z,12.25
2022-11-12T18:55:47.691Z,12.24
2022-11-12T18:58:52.149Z,12.26
2022-11-12T19:01:58.227Z,12.31
2022-11-12T19:05:02.440Z,12.34
2022-11-12T19:08:06.879Z,12.32
2022-11-12T19:11:13.833Z,12.37
2022-11-12T19:14:18.082Z,12.39
2022-11-12T19:17:22.168Z,12.42
2022-11-12T19:20:26.553Z,12.46
2022-11-12T19:23:31.145Z,12.50
2022-11-12T19:26:35.616Z,12.51
2022-11-12T19:29:39.985Z,12.53
2022-11-12T19:32:44.459Z,12.54
2022-11-12T19:35:48.883Z,12.53
2022-11-12T19:38:55.294Z,12.55
2022-11-12T19:41:59.505Z,12.56
2022-11-12T19:45:04.740Z,12.61
2022-11-12T19:48:08.979Z,12.67
2022-11-12T19:51:14.074Z,12.69
2022-11-12T19:54:18.738Z,12.72
2022-11-12T19:57:23.458Z,12.75
2022-11-12T20:00:27.385Z,12.69
2022-11-12T20:03:32.299Z,12.67
2022-11-12T20:06:36.722Z,12.62
2022-11-12T20:09:41.118Z,12.56
2022-11-12T20:12:45.880Z,12.49
2022-11-12T20:15:50.244Z,12.40
2022-11-12T20:18:55.740Z,12.34
2022-11-12T20:22:00.212Z,12.27
2022-11-12T20:25:04.837Z,12.20
2022-11-12T20:28:09.803Z,12.18
2022-11-12T20:31:22.090Z,12.12
2022-11-12T20:34:27.303Z,11.99
2022-11-12T20:37:31.451Z,12.02
2022-11-12T20:40:35.747Z,11.99
2022-11-12T20:43:40.284Z,11.95
2022-11-12T20:46:44.849Z,11.90
2022-11-12T20:49:49.349Z,12.02
2022-11-12T20:52:53.735Z,12.15
2022-11-12T20:56:05.708Z,12.13
2022-11-12T20:59:11.080Z,12.14
2022-11-12T21:02:15.167Z,12.16
2022-11-12T21:05:19.455Z,12.13
2022-11-12T21:08:23.677Z,11.99
2022-11-12T21:11:27.998Z,11.89
2022-11-12T21:14:32.546Z,11.92
2022-11-12T21:17:36.916Z,11.90
2022-11-12T21:20:41.128Z,11.85
2022-11-12T21:23:45.838Z,11.85
2022-11-12T21:26:50.476Z,11.85
2022-11-12T21:29:54.953Z,11.92
2022-11-12T21:32:59.713Z,11.93
2022-11-12T21:36:06.033Z,11.94
2022-11-12T21:39:12.057Z,11.97
2022-11-12T21:42:16.517Z,11.92
2022-11-12T21:45:20.809Z,11.92
2022-11-12T21:48:25.618Z,11.96
2022-11-12T21:51:33.005Z,11.92
2022-11-12T21:54:37.779Z,11.92
2022-11-12T21:57:42.342Z,11.85
2022-11-12T22:00:46.650Z,11.84
2022-11-12T22:03:53.174Z,11.84
2022-11-12T22:06:57.164Z,11.89
2022-11-12T22:10:01.374Z,11.95
2022-11-12T22:13:25.978Z,11.92
2022-11-12T22:16:30.157Z,12.03
2022-11-12T22:19:34.961Z,11.94
2022-11-12T22:22:39.217Z,12.05
2022-11-12T22:25:43.463Z,12.05
2022-11-12T22:28:48.888Z,12.05
2022-11-12T22:31:53.297Z,12.10
2022-11-12T22:34:57.741Z,12.12
2022-11-12T22:38:02.059Z,12.11
2022-11-12T22:41:08.865Z,12.06
2022-11-12T22:44:13.017Z,12.06
2022-11-12T22:47:17.667Z,12.09
2022-11-12T22:50:22.147Z,12.14
2022-11-12T22:53:27.116Z,12.16
2022-11-12T22:56:34.993Z,12.16
2022-11-12T22:59:39.112Z,12.14
2022-11-12T23:02:47.417Z,12.08
2022-11-12T23:06:03.389Z,12.08
2022-11-12T23:09:08.022Z,12.01
2022-11-12T23:12:12.327Z,12.07
2022-11-12T23:15:16.580Z,12.12
2022-11-12T23:18:20.846Z,12.12
2022-11-12T23:21:27.926Z,12.10
2022-11-12T23:24:32.448Z,12.11
2022-11-12T23:27:37.868Z,12.06
2022-11-12T23:30:50.332Z,11.98
2022-11-12T23:33:57.315Z,11.97
2022-11-12T23:37:01.660Z,11.95
2022-11-12T23:40:06.989Z,11.97
2022-11-12T23:43:10.945Z,11.93
2022-11-12T23:46:15.632Z,11.90
2022-11-12T23:49:19.831Z,11.87
2022-11-12T23:52:24.308Z,11.84
2022-11-12T23:55:29.522Z,11.78
2022-11-12T23:58:33.770Z,11.76
